Time;durP1;ratioP1;P1;durP2;ratioP2;P2;SDS_P1;SDS_P2;PMS_P1;PMS_P2;Temp;Humidity;BMP_temperature;BMP_pressure;BME280_temperature;BME280_humidity;BME280_pressure;Samples;Min_cycle;Max_cycle;Signal;HPM_P1;HPM_P2
2022/02/04 00:06:53;;;;;;;53.28;36.38;;;7.80;99.90;;;;;;5064157;28;20474;-79
2022/02/04 00:27:54;;;;;;;61.60;39.13;;;7.80;99.90;;;;;;5064842;28;20059;-79
2022/02/04 00:30:29;;;;;;;62.00;40.20;;;7.80;99.90;;;;;;5050747;28;20024;-79
2022/02/04 00:32:58;;;;;;;53.78;37.03;;;7.80;99.90;;;;;;5049815;28;20462;-79
2022/02/04 00:38:32;;;;;;;58.00;39.83;;;7.80;99.90;;;;;;5060679;28;20477;-79
2022/02/04 00:41:05;;;;;;;54.80;35.15;;;7.80;99.90;;;;;;5030699;28;20035;-79
2022/02/04 00:43:32;;;;;;;55.72;37.75;;;7.80;99.90;;;;;;5036492;28;20541;-79
2022/02/04 00:46:09;;;;;;;54.22;35.90;;;7.80;99.90;;;;;;5035409;28;20482;-79
2022/02/04 00:53:54;;;;;;;52.95;36.60;;;7.80;99.90;;;;;;5034182;28;20325;-79
2022/02/04 01:26:16;;;;;;;54.55;34.75;;;7.80;99.90;;;;;;5061694;28;20440;-79
2022/02/04 01:28:45;;;;;;;57.28;36.55;;;7.80;99.90;;;;;;5022422;28;20041;-79
2022/02/04 01:31:18;;;;;;;56.30;35.80;;;7.80;99.90;;;;;;5034723;28;20029;-78
2022/02/04 01:33:46;;;;;;;54.17;33.42;;;7.80;99.90;;;;;;5038399;28;20037;-81
2022/02/04 01:36:14;;;;;;;47.72;32.17;;;7.80;99.90;;;;;;5036504;28;20036;-79
2022/02/04 01:38:41;;;;;;;51.78;34.58;;;7.80;99.90;;;;;;5005529;28;20029;-79
2022/02/04 01:41:08;;;;;;;47.58;32.13;;;7.80;99.90;;;;;;5025227;28;20044;-79
2022/02/04 01:43:39;;;;;;;48.03;32.60;;;7.90;99.90;;;;;;5003903;28;20037;-86
2022/02/04 01:46:08;;;;;;;49.63;33.20;;;7.80;99.90;;;;;;5025929;28;20041;-85
2022/02/04 01:48:43;;;;;;;48.65;31.58;;;7.90;99.90;;;;;;5009660;28;20063;-84
2022/02/04 01:51:13;;;;;;;43.97;29.98;;;7.90;99.90;;;;;;5040946;28;22173;-82
2022/02/04 01:53:40;;;;;;;48.45;31.00;;;7.90;99.90;;;;;;5011600;28;20036;-83
2022/02/04 01:56:13;;;;;;;47.50;32.50;;;7.90;99.90;;;;;;5011657;28;20485;-84
2022/02/04 01:58:41;;;;;;;44.13;31.30;;;7.90;99.90;;;;;;5039831;28;20052;-82
2022/02/04 02:01:08;;;;;;;42.55;29.25;;;7.90;99.90;;;;;;5040294;28;20028;-83
2022/02/04 02:03:34;;;;;;;42.83;29.00;;;7.90;99.90;;;;;;5038439;28;20043;-84
2022/02/04 02:06:07;;;;;;;44.72;30.50;;;7.80;99.90;;;;;;5022262;28;20459;-83
2022/02/04 02:08:34;;;;;;;45.20;29.02;;;7.80;99.90;;;;;;5041798;28;20033;-84
2022/02/04 02:11:01;;;;;;;43.13;31.77;;;7.80;99.90;;;;;;5042359;28;20358;-84
2022/02/04 02:36:36;;;;;;;45.38;28.80;;;7.80;99.90;;;;;;4975562;28;20057;-86
2022/02/04 02:39:27;;;;;;;38.58;26.65;;;7.80;99.90;;;;;;5018585;28;20045;-87
2022/02/04 02:58:58;;;;;;;33.33;23.20;;;7.90;99.90;;;;;;5045755;28;20491;-86
2022/02/04 03:01:26;;;;;;;35.90;23.10;;;7.90;99.90;;;;;;5046545;28;20040;-86
2022/02/04 03:04:08;;;;;;;35.15;24.67;;;7.90;99.90;;;;;;5026228;28;20039;-86
2022/02/04 03:06:40;;;;;;;34.70;24.17;;;7.80;99.90;;;;;;5044792;28;20495;-86
2022/02/04 03:09:10;;;;;;;32.42;23.70;;;7.80;99.90;;;;;;5043873;28;20048;-86
2022/02/04 03:11:37;;;;;;;32.45;22.50;;;7.80;99.90;;;;;;5025112;28;20025;-86
2022/02/04 03:14:04;;;;;;;34.03;23.02;;;7.80;99.90;;;;;;5030550;28;20082;-86
2022/02/04 03:16:35;;;;;;;31.17;21.77;;;7.80;99.90;;;;;;5045041;28;20029;-87
2022/02/04 03:19:04;;;;;;;33.72;22.27;;;7.80;99.90;;;;;;5061575;28;20021;-86
2022/02/04 03:21:42;;;;;;;28.48;20.85;;;7.80;99.90;;;;;;5043268;28;20033;-87
2022/02/04 03:24:13;;;;;;;30.13;21.15;;;7.80;99.90;;;;;;5036647;28;20508;-86
2022/02/04 03:26:57;;;;;;;31.38;19.70;;;7.80;99.90;;;;;;5065093;28;20473;-87
2022/02/04 03:29:33;;;;;;;31.23;20.23;;;7.80;99.90;;;;;;5054812;28;20036;-86
2022/02/04 03:32:05;;;;;;;27.33;19.27;;;7.90;99.90;;;;;;5054437;28;20521;-86
2022/02/04 03:34:33;;;;;;;27.05;17.83;;;7.90;99.90;;;;;;5050827;28;20456;-87
2022/02/04 03:37:00;;;;;;;30.38;17.80;;;7.80;99.90;;;;;;5069685;28;20766;-87
2022/02/04 03:39:32;;;;;;;26.40;17.88;;;7.90;99.90;;;;;;5039670;28;20479;-86
2022/02/04 03:41:59;;;;;;;27.20;18.77;;;7.90;99.90;;;;;;5053865;28;20048;-86
2022/02/04 03:44:25;;;;;;;26.75;18.48;;;7.90;99.90;;;;;;5069445;28;20051;-86
2022/02/04 03:46:52;;;;;;;24.15;16.50;;;7.90;99.90;;;;;;5053368;28;20046;-86
2022/02/04 03:49:18;;;;;;;27.27;18.33;;;7.90;99.90;;;;;;5053429;28;20032;-86
2022/02/04 03:51:45;;;;;;;26.02;17.92;;;7.90;99.90;;;;;;5058020;28;20039;-86
2022/02/04 03:54:12;;;;;;;24.52;17.48;;;7.90;99.90;;;;;;5086670;28;20040;-87
2022/02/04 03:56:41;;;;;;;24.50;15.50;;;7.90;99.90;;;;;;5039961;28;21158;-87
2022/02/04 03:59:07;;;;;;;24.38;16.15;;;7.90;99.90;;;;;;5065999;28;20051;-87
2022/02/04 04:01:34;;;;;;;23.15;15.73;;;7.90;99.90;;;;;;5082695;28;20039;-86
2022/02/04 04:04:02;;;;;;;25.83;15.38;;;7.90;99.90;;;;;;5041288;28;20040;-87
2022/02/04 04:06:28;;;;;;;24.75;16.42;;;7.90;99.90;;;;;;5062835;28;20048;-87
2022/02/04 04:08:56;;;;;;;22.38;15.18;;;7.90;99.90;;;;;;5064231;28;20052;-87
2022/02/04 04:11:22;;;;;;;24.70;14.57;;;8.00;99.90;;;;;;5036819;28;20039;-88
2022/02/04 04:13:50;;;;;;;21.33;13.98;;;8.00;99.90;;;;;;5035293;28;20040;-87
2022/02/04 04:16:18;;;;;;;21.92;14.52;;;8.00;99.90;;;;;;5068199;28;20047;-88
2022/02/04 04:18:45;;;;;;;29.00;18.55;;;8.00;99.90;;;;;;5049930;28;20047;-87
2022/02/04 04:21:12;;;;;;;22.60;15.50;;;8.00;99.90;;;;;;5064483;28;20035;-87
2022/02/04 04:23:38;;;;;;;25.15;15.85;;;8.00;99.90;;;;;;5050057;28;20036;-88
2022/02/04 04:26:05;;;;;;;21.50;14.82;;;8.00;99.90;;;;;;5057578;28;20050;-80
2022/02/04 04:28:32;;;;;;;19.52;12.77;;;8.00;99.90;;;;;;5083125;28;20047;-87
2022/02/04 04:30:58;;;;;;;19.33;12.57;;;8.00;99.90;;;;;;5070098;28;20043;-88
2022/02/04 04:33:27;;;;;;;22.50;14.40;;;8.00;99.90;;;;;;5051168;28;20051;-86
2022/02/04 04:35:54;;;;;;;21.20;14.13;;;8.00;99.90;;;;;;5069099;28;20471;-86
2022/02/04 04:38:43;;;;;;;18.02;12.43;;;8.00;99.90;;;;;;5051927;28;20043;-86
2022/02/04 05:28:11;;;;;;;15.85;10.60;;;7.90;99.90;;;;;;5050249;28;20841;-85
2022/02/04 05:30:38;;;;;;;;;;;7.90;99.90;;;;;;5052114;28;20032;-85
2022/02/04 05:33:04;;;;;;;15.80;10.13;;;7.90;99.90;;;;;;5054748;28;20275;-85
2022/02/04 05:35:31;;;;;;;18.27;10.48;;;7.90;99.90;;;;;;5048729;28;20033;-86
2022/02/04 05:37:58;;;;;;;13.88;9.82;;;7.90;99.90;;;;;;5067996;28;20024;-86
2022/02/04 05:40:29;;;;;;;12.32;9.48;;;7.90;99.90;;;;;;5051543;28;20020;-82
2022/02/04 05:43:29;;;;;;;12.98;8.93;;;7.90;99.90;;;;;;5067339;28;20044;-86
2022/02/04 05:46:14;;;;;;;13.05;8.82;;;7.90;99.90;;;;;;5048880;28;20044;-86
2022/02/04 05:48:55;;;;;;;11.55;8.10;;;7.90;99.90;;;;;;5061886;28;20127;-88
2022/02/04 05:52:35;;;;;;;15.63;10.48;;;7.90;99.90;;;;;;5071396;28;20036;-88
2022/02/04 05:59:48;;;;;;;17.35;8.52;;;7.90;99.90;;;;;;5059397;28;20059;-87
2022/02/04 06:02:37;;;;;;;18.65;9.02;;;7.80;99.90;;;;;;5067527;28;20040;-89
2022/02/04 06:09:29;;;;;;;11.27;8.30;;;7.80;99.90;;;;;;5049269;28;20513;-89
2022/02/04 06:12:24;;;;;;;10.10;7.60;;;7.80;99.90;;;;;;5078964;28;20043;-93
2022/02/04 06:30:13;;;;;;;;;;;;;;;;;;;;;
2022/02/04 06:37:27;;;;;;;10.85;7.50;;;7.80;99.90;;;;;;5007697;28;20045;-94
2022/02/04 06:40:41;;;;;;;10.82;6.68;;;7.80;99.90;;;;;;4996143;28;20033;-94
2022/02/04 06:44:06;;;;;;;9.40;6.57;;;7.90;99.90;;;;;;4952616;28;20054;-94
2022/02/04 06:51:36;;;;;;;9.98;6.10;;;7.90;99.90;;;;;;4943460;28;20047;-89
2022/02/04 06:54:30;;;;;;;9.48;6.28;;;7.90;99.90;;;;;;4966583;28;20045;-86
2022/02/04 06:57:23;;;;;;;8.23;5.97;;;7.90;99.90;;;;;;4987732;28;20026;-92
2022/02/04 07:00:18;;;;;;;7.28;4.90;;;7.80;99.90;;;;;;4990433;28;20045;-92
2022/02/04 07:03:26;;;;;;;9.32;6.18;;;7.90;99.90;;;;;;5004968;28;20033;-91
2022/02/04 07:05:56;;;;;;;9.40;5.38;;;7.80;99.90;;;;;;5007217;28;20046;-87
2022/02/04 07:08:43;;;;;;;;;;;;;;;;;;;;;
2022/02/04 07:14:30;;;;;;;10.52;6.28;;;7.90;99.90;;;;;;4994492;28;20049;-88
2022/02/04 07:26:00;;;;;;;5.88;4.43;;;7.90;99.90;;;;;;4966897;28;20502;-89
2022/02/04 07:33:35;;;;;;;7.68;6.13;;;8.00;99.90;;;;;;4982567;28;20133;-90
2022/02/04 07:44:05;;;;;;;8.50;5.68;;;8.10;99.90;;;;;;4988263;28;19910;-89
2022/02/04 07:46:32;;;;;;;7.10;6.20;;;8.10;99.90;;;;;;4950373;28;20402;-87
2022/02/04 07:50:08;;;;;;;;;;;;;;;;;;;;;
2022/02/04 07:58:16;;;;;;;10.13;5.65;;;8.20;99.90;;;;;;4853815;29;20042;-88
2022/02/04 08:01:29;;;;;;;;;;;;;;;;;;;;;
2022/02/04 08:05:03;;;;;;;5.60;4.90;;;8.20;99.90;;;;;;4869553;29;20041;-89
2022/02/04 08:08:43;;;;;;;6.53;5.78;;;8.20;99.90;;;;;;4867447;29;20040;-88
2022/02/04 08:11:48;;;;;;;8.98;5.55;;;8.20;99.90;;;;;;4878595;29;20036;-88
2022/02/04 09:11:17;;;;;;;12.80;8.18;;;8.30;99.90;;;;;;4908857;29;20037;-91
2022/02/04 09:19:43;;;;;;;13.73;10.00;;;8.40;99.90;;;;;;4984985;28;20019;-88
2022/02/04 09:22:49;;;;;;;10.68;9.32;;;8.40;99.90;;;;;;4968332;28;20030;-88
2022/02/04 09:25:11;;;;;;;9.88;8.30;;;8.50;99.90;;;;;;4967867;28;20045;-89
2022/02/04 09:27:42;;;;;;;10.75;8.90;;;8.50;99.90;;;;;;4987979;28;20112;-87
2022/02/04 09:30:44;;;;;;;8.82;7.53;;;8.60;99.90;;;;;;4973294;28;20026;-88
2022/02/04 09:33:14;;;;;;;11.10;7.95;;;8.60;99.90;;;;;;4972154;28;20033;-89
2022/02/04 09:36:05;;;;;;;11.57;8.73;;;8.70;99.90;;;;;;4973752;28;20046;-88
2022/02/04 09:38:41;;;;;;;9.25;7.90;;;8.80;99.90;;;;;;4982680;28;20034;-86
2022/02/04 09:41:07;;;;;;;8.07;6.82;;;8.70;99.90;;;;;;4970430;28;20045;-89
2022/02/04 09:43:35;;;;;;;10.02;7.38;;;8.80;99.90;;;;;;4980948;28;20050;-87
2022/02/04 09:46:01;;;;;;;10.10;8.88;;;8.80;99.90;;;;;;4982640;28;21206;-87
2022/02/04 09:48:29;;;;;;;10.32;8.48;;;8.80;99.90;;;;;;4984640;28;20038;-88
2022/02/04 09:50:58;;;;;;;8.98;7.20;;;8.80;99.90;;;;;;4971371;28;20512;-88
2022/02/04 10:06:32;;;;;;;9.30;8.15;;;8.90;99.90;;;;;;4980689;28;20053;-87
2022/02/04 10:08:29;;;;;;;8.50;7.50;;;8.90;99.90;;;;;;4981710;28;20035;-89
2022/02/04 10:19:28;;;;;;;9.40;8.48;;;9.00;99.90;;;;;;4982430;28;20389;-87
2022/02/04 10:21:57;;;;;;;7.82;7.07;;;9.00;99.90;;;;;;4966101;28;20042;-89
2022/02/04 10:24:26;;;;;;;9.50;8.50;;;9.00;99.90;;;;;;4996981;28;20046;-89
2022/02/04 10:27:08;;;;;;;8.90;7.45;;;9.00;99.90;;;;;;4970738;28;20046;-88
2022/02/04 10:29:34;;;;;;;8.85;7.32;;;9.10;99.90;;;;;;4982825;28;20042;-88
2022/02/04 10:32:01;;;;;;;8.02;6.65;;;9.10;99.90;;;;;;4984776;28;20514;-89
2022/02/04 10:34:33;;;;;;;8.15;6.38;;;9.10;99.90;;;;;;4987981;28;20512;-89
2022/02/04 10:37:03;;;;;;;7.72;5.30;;;9.20;99.90;;;;;;4986051;28;20057;-87
2022/02/04 10:42:31;;;;;;;5.20;3.97;;;9.30;99.90;;;;;;4982552;28;20034;-88
2022/02/04 10:51:25;;;;;;;4.07;3.60;;;9.40;99.90;;;;;;4980472;28;20027;-87
2022/02/04 11:04:18;;;;;;;3.60;2.70;;;9.70;99.90;;;;;;5001671;28;20042;-88
2022/02/04 11:35:05;;;;;;;4.35;2.88;;;9.90;99.90;;;;;;4986050;28;20034;-87
2022/02/04 11:55:34;;;;;;;4.70;2.67;;;10.10;99.90;;;;;;4986142;28;20034;-86
2022/02/04 11:58:04;;;;;;;4.30;2.50;;;10.10;99.90;;;;;;4973287;28;20046;-89
2022/02/04 12:00:41;;;;;;;4.32;2.88;;;10.20;99.90;;;;;;4956732;28;20050;-87
2022/02/04 12:03:23;;;;;;;3.38;2.75;;;10.20;99.90;;;;;;4968751;28;20371;-86
2022/02/04 12:05:50;;;;;;;3.95;2.42;;;10.30;99.90;;;;;;4984902;28;20031;-88
2022/02/04 12:08:24;;;;;;;4.07;2.60;;;10.30;99.90;;;;;;5001575;28;20049;-86
2022/02/04 12:10:52;;;;;;;3.40;2.50;;;10.30;99.90;;;;;;4986351;28;20042;-86
2022/02/04 12:13:21;;;;;;;3.78;2.60;;;10.20;99.90;;;;;;4963915;28;20521;-87
2022/02/04 12:16:05;;;;;;;4.93;2.65;;;10.20;99.90;;;;;;4985668;28;20035;-87
2022/02/04 12:18:34;;;;;;;2.60;2.08;;;10.20;99.90;;;;;;4966183;28;20030;-88
2022/02/04 12:21:04;;;;;;;3.63;2.38;;;10.20;99.90;;;;;;4984677;28;20038;-88
2022/02/04 12:23:46;;;;;;;3.83;3.30;;;10.20;99.90;;;;;;4982353;28;20508;-88
2022/02/04 12:26:18;;;;;;;3.15;2.20;;;10.10;99.90;;;;;;4999442;28;20517;-87
2022/02/04 12:28:55;;;;;;;3.22;2.22;;;10.10;99.90;;;;;;4998117;28;20374;-87
2022/02/04 12:31:35;;;;;;;2.78;1.90;;;10.10;99.90;;;;;;4987471;28;20022;-87
2022/02/04 12:34:19;;;;;;;3.53;2.38;;;10.00;99.90;;;;;;4984442;28;20041;-87
2022/02/04 12:37:18;;;;;;;4.72;2.15;;;10.00;99.90;;;;;;4961978;28;20038;-87
2022/02/04 12:39:51;;;;;;;3.58;2.22;;;9.90;99.90;;;;;;4969540;28;20050;-87
2022/02/04 12:42:19;;;;;;;4.95;2.70;;;9.90;99.90;;;;;;4986720;28;20038;-87
2022/02/04 12:44:57;;;;;;;3.13;2.20;;;9.90;99.90;;;;;;4982609;28;20061;-88
2022/02/04 12:47:34;;;;;;;3.22;2.22;;;9.90;99.90;;;;;;4970240;28;20054;-89
2022/02/04 12:50:37;;;;;;;4.72;2.05;;;9.90;99.90;;;;;;4987606;28;20153;-87
2022/02/04 12:53:40;;;;;;;3.75;2.90;;;9.80;99.90;;;;;;4953289;28;20038;-85
2022/02/04 12:59:52;;;;;;;3.58;3.00;;;9.70;99.90;;;;;;4981435;28;20054;-88
2022/02/04 13:08:44;;;;;;;4.43;3.50;;;9.50;99.90;;;;;;4985085;28;20026;-86
2022/02/04 13:11:22;;;;;;;4.00;2.53;;;9.50;99.90;;;;;;4954113;28;20046;-86
2022/02/04 13:13:59;;;;;;;3.35;2.70;;;9.50;99.90;;;;;;4989363;28;20042;-87
2022/02/04 13:16:59;;;;;;;2.63;2.30;;;9.40;99.90;;;;;;4988468;28;20482;-87
2022/02/04 13:19:49;;;;;;;6.70;2.58;;;9.50;99.90;;;;;;4987825;28;20039;-87
2022/02/04 13:22:25;;;;;;;2.67;1.70;;;9.40;99.90;;;;;;4990784;28;20470;-86
2022/02/04 13:25:21;;;;;;;2.88;1.98;;;9.40;99.90;;;;;;4980634;28;20042;-85
2022/02/04 13:28:17;;;;;;;3.15;2.00;;;9.40;99.90;;;;;;4984046;28;21638;-86
2022/02/04 13:31:00;;;;;;;5.18;2.72;;;9.40;99.90;;;;;;4983535;28;20393;-84
2022/02/04 13:33:31;;;;;;;2.72;1.90;;;9.40;99.90;;;;;;4980520;28;20054;-84
2022/02/04 13:36:23;;;;;;;2.20;1.65;;;9.40;99.90;;;;;;4998623;28;20045;-84
2022/02/04 13:39:15;;;;;;;6.55;2.38;;;9.30;99.90;;;;;;4983159;28;20408;-85
2022/02/04 13:44:32;;;;;;;4.35;2.28;;;9.20;99.90;;;;;;5000096;28;20023;-85
2022/02/04 13:47:49;;;;;;;5.57;2.45;;;9.10;99.90;;;;;;4971299;28;20038;-86
2022/02/04 13:53:16;;;;;;;5.25;2.65;;;9.00;99.90;;;;;;4979395;28;20041;-84
2022/02/04 13:58:39;;;;;;;4.93;2.80;;;8.90;99.90;;;;;;4987365;28;20029;-86
2022/02/04 14:04:13;;;;;;;9.82;4.72;;;8.60;99.90;;;;;;4970666;28;20042;-81
2022/02/04 14:06:43;;;;;;;;;;;8.50;99.90;;;;;;4966876;28;20386;-82
2022/02/04 14:09:19;;;;;;;12.27;5.03;;;8.40;99.90;;;;;;4981123;28;19924;-83
2022/02/04 14:11:45;;;;;;;14.00;9.15;;;8.30;99.90;;;;;;4986987;28;20047;-82
2022/02/04 14:14:22;;;;;;;16.73;8.13;;;8.20;99.90;;;;;;4971724;28;20030;-83
2022/02/04 14:17:01;;;;;;;11.68;6.93;;;8.20;99.90;;;;;;4982186;28;20485;-82
2022/02/04 14:19:28;;;;;;;20.95;11.75;;;8.20;99.90;;;;;;4986219;28;20031;-82
2022/02/04 14:21:58;;;;;;;11.27;6.72;;;8.10;99.90;;;;;;4981662;28;20042;-81
2022/02/04 14:24:25;;;;;;;9.52;6.47;;;8.10;99.90;;;;;;4980771;28;20026;-80
2022/02/04 14:26:52;;;;;;;11.60;5.35;;;8.10;99.90;;;;;;4993427;28;20053;-80
2022/02/04 14:29:28;;;;;;;10.30;6.30;;;8.10;99.90;;;;;;5001763;28;20033;-81
2022/02/04 14:37:41;;;;;;;10.18;6.90;;;8.00;99.90;;;;;;4990395;28;23606;-82
2022/02/04 14:54:04;;;;;;;8.68;6.15;;;7.90;99.90;;;;;;5006925;28;20042;-80
2022/02/04 15:00:05;;;;;;;1.75;0.52;;;7.60;99.90;;;;;;5001874;28;20026;-93
2022/02/04 15:02:23;;;;;;;1.00;0.50;;;7.10;99.90;;;;;;4980145;28;20033;-89
2022/02/04 15:04:59;;;;;;;5.15;0.60;;;6.80;99.90;;;;;;4968926;28;20037;-92
2022/02/04 15:07:31;;;;;;;3.45;0.65;;;6.50;99.90;;;;;;4994332;28;20030;-93
2022/02/04 15:10:01;;;;;;;1.70;0.40;;;6.30;99.90;;;;;;4984720;28;20034;-93
2022/02/04 15:12:30;;;;;;;1.58;0.20;;;6.20;99.90;;;;;;4956282;28;20042;-91
2022/02/04 15:15:05;;;;;;;0.60;0.10;;;6.00;99.90;;;;;;4963144;28;20037;-94
2022/02/04 15:17:42;;;;;;;0.57;0.22;;;5.70;99.90;;;;;;5000584;28;20034;-94
2022/02/04 15:20:09;;;;;;;0.47;0.13;;;5.50;99.90;;;;;;5005790;28;20045;-93
2022/02/04 15:22:35;;;;;;;0.55;0.20;;;5.30;99.90;;;;;;5000160;28;20032;-93
2022/02/04 15:25:11;;;;;;;0.32;0.20;;;5.10;99.90;;;;;;4997623;28;20374;-93
2022/02/04 15:27:53;;;;;;;0.40;0.30;;;5.00;99.90;;;;;;4995992;28;20050;-94
2022/02/04 15:30:26;;;;;;;1.00;0.28;;;4.90;99.90;;;;;;4994943;28;20397;-95
2022/02/04 15:32:54;;;;;;;;;;;4.80;99.90;;;;;;4991182;28;20049;-95
2022/02/04 15:35:23;;;;;;;0.32;0.20;;;4.70;99.90;;;;;;4981558;28;19918;-92
2022/02/04 15:37:52;;;;;;;1.17;0.30;;;4.60;99.90;;;;;;4998443;28;20037;-93
2022/02/04 15:40:18;;;;;;;0.88;0.30;;;4.60;99.90;;;;;;4991812;28;20034;-93
2022/02/04 15:42:59;;;;;;;0.63;0.30;;;4.50;99.90;;;;;;4977802;28;20045;-92
2022/02/04 15:48:21;;;;;;;;;;;4.60;99.90;;;;;;4994486;28;20050;-91
2022/02/04 15:51:21;;;;;;;1.50;0.60;;;4.60;99.90;;;;;;4994707;28;19924;-91
2022/02/04 15:54:00;;;;;;;0.80;0.40;;;4.60;99.90;;;;;;4975552;28;20053;-90
2022/02/04 15:56:47;;;;;;;0.93;0.40;;;4.60;99.90;;;;;;4981084;28;20061;-91
2022/02/04 15:59:46;;;;;;;1.17;0.60;;;4.60;99.90;;;;;;4984044;28;20034;-90
2022/02/04 16:03:10;;;;;;;0.70;0.50;;;4.60;99.90;;;;;;4977590;28;20057;-90
2022/02/04 16:05:11;;;;;;;1.95;0.57;;;4.60;99.90;;;;;;4994154;28;20038;-90
2022/02/04 16:07:40;;;;;;;1.65;0.35;;;4.60;99.90;;;;;;4994497;28;20034;-92
2022/02/04 16:10:26;;;;;;;2.80;0.60;;;4.50;99.90;;;;;;4964360;28;21232;-92
2022/02/04 16:13:11;;;;;;;1.70;0.70;;;4.60;99.90;;;;;;4979686;28;20045;-92
2022/02/04 16:15:53;;;;;;;1.65;0.80;;;4.60;99.90;;;;;;4979831;28;20408;-94
2022/02/04 16:18:27;;;;;;;1.85;0.88;;;4.60;99.90;;;;;;4989678;28;21202;-93
2022/02/04 16:21:06;;;;;;;0.98;0.50;;;4.60;99.90;;;;;;4978099;28;20077;-92
2022/02/04 16:23:55;;;;;;;0.90;0.50;;;4.60;99.90;;;;;;4980964;28;20042;-92
2022/02/04 16:28:49;;;;;;;0.50;0.40;;;4.60;99.90;;;;;;4995960;28;20034;-94
2022/02/04 16:31:27;;;;;;;0.70;0.60;;;4.70;99.90;;;;;;5013653;28;20038;-94
2022/02/04 16:34:13;;;;;;;0.90;0.50;;;4.70;99.90;;;;;;4962681;28;20034;-93
2022/02/04 16:36:45;;;;;;;1.23;0.70;;;4.70;99.90;;;;;;4990382;28;20501;-88
2022/02/04 16:39:13;;;;;;;;;;;4.70;99.90;;;;;;4954191;28;20037;-85
2022/02/04 16:42:02;;;;;;;1.50;0.70;;;4.60;99.90;;;;;;4988690;28;19918;-91
2022/02/04 16:44:31;;;;;;;3.33;0.70;;;4.60;99.90;;;;;;4973619;28;20050;-90
2022/02/04 16:47:01;;;;;;;4.18;0.70;;;4.50;99.90;;;;;;4975293;28;20037;-91
2022/02/04 16:49:29;;;;;;;1.88;0.70;;;4.50;99.90;;;;;;4985374;28;20033;-90
2022/02/04 16:51:59;;;;;;;2.00;0.57;;;4.50;99.90;;;;;;4992749;28;20043;-91
2022/02/04 16:54:33;;;;;;;2.70;0.70;;;4.40;99.90;;;;;;4980063;28;20027;-90
2022/02/04 16:57:08;;;;;;;2.28;0.75;;;4.40;99.90;;;;;;4994525;28;20030;-88
2022/02/04 16:59:44;;;;;;;3.30;1.35;;;4.40;99.90;;;;;;5010304;28;20030;-93
2022/02/04 17:02:11;;;;;;;2.08;0.73;;;4.40;99.90;;;;;;4986772;28;20028;-81
2022/02/04 17:05:10;;;;;;;2.30;0.65;;;4.30;99.90;;;;;;4988116;28;20045;-90
2022/02/04 17:07:40;;;;;;;4.22;0.50;;;4.30;99.90;;;;;;4974487;28;20034;-88
2022/02/04 17:10:09;;;;;;;1.08;0.50;;;4.30;99.90;;;;;;4989298;28;20030;-89
2022/02/04 17:12:58;;;;;;;;;;;;;;;;;;;;;
2022/02/04 17:16:30;;;;;;;4.57;1.63;;;4.30;99.90;;;;;;4988413;28;20457;-87
2022/02/04 17:19:08;;;;;;;4.38;1.02;;;4.30;99.90;;;;;;4975974;28;20030;-89
2022/02/04 17:21:47;;;;;;;4.53;0.90;;;4.30;99.90;;;;;;4986865;28;20045;-92
2022/02/04 17:24:15;;;;;;;4.90;1.07;;;4.20;99.90;;;;;;5012380;28;20050;-93
2022/02/04 17:26:42;;;;;;;4.18;1.08;;;4.20;99.90;;;;;;5000257;28;20061;-92
2022/02/04 17:29:10;;;;;;;6.27;1.13;;;4.10;99.90;;;;;;4965365;28;20034;-91
2022/02/04 17:31:44;;;;;;;4.70;0.93;;;4.10;99.90;;;;;;4986743;28;20038;-92
2022/02/04 17:34:16;;;;;;;4.15;0.77;;;4.10;99.90;;;;;;4975456;28;20050;-92
2022/02/04 17:36:48;;;;;;;6.47;1.30;;;4.10;99.90;;;;;;4977872;28;20378;-92
2022/02/04 17:39:21;;;;;;;2.77;0.80;;;4.10;99.90;;;;;;4993338;28;20043;-92
2022/02/04 17:42:43;;;;;;;4.97;1.30;;;4.10;99.90;;;;;;4983179;28;20053;-95
2022/02/04 17:45:22;;;;;;;5.63;1.10;;;4.00;99.90;;;;;;4974479;28;20046;-88
2022/02/04 17:51:21;;;;;;;5.07;1.25;;;3.80;99.90;;;;;;4956636;28;20078;-93
2022/02/04 17:53:59;;;;;;;2.72;1.02;;;3.80;99.90;;;;;;4943297;29;20054;-93
2022/02/04 17:59:10;;;;;;;3.58;1.60;;;3.80;99.90;;;;;;4977555;28;20047;-92
2022/02/04 21:44:25;;;;;;;13.43;5.33;;;4.10;99.90;;;;;;4244878;27;21460159;-91
2022/02/04 21:46:51;;;;;;;20.98;6.50;;;4.10;99.90;;;;;;4955544;28;20073;-87
2022/02/04 21:49:18;;;;;;;19.95;7.18;;;4.20;99.90;;;;;;4968579;28;20042;-88
2022/02/04 21:51:54;;;;;;;13.73;6.38;;;4.10;99.90;;;;;;4936852;28;20069;-89
2022/02/04 21:54:20;;;;;;;14.95;6.35;;;4.20;99.90;;;;;;4950624;28;20031;-88
2022/02/04 21:56:54;;;;;;;20.30;6.80;;;4.10;99.90;;;;;;4956696;28;20035;-90
2022/02/04 22:04:32;;;;;;;19.08;6.55;;;4.10;99.90;;;;;;4971918;28;20039;-94
2022/02/04 22:07:16;;;;;;;13.15;4.68;;;4.10;99.90;;;;;;4996241;28;20403;-93
2022/02/04 22:11:18;;;;;;;;;;;;;;;;;;;;;
2022/02/04 22:22:04;;;;;;;12.27;4.82;;;4.10;99.90;;;;;;4991191;28;20034;-94
2022/02/04 22:22:25;;;;;;;14.48;4.43;;;4.10;99.90;;;;;;4949524;28;20050;-95
2022/02/04 22:24:53;;;;;;;11.90;3.30;;;4.10;99.90;;;;;;4973546;28;20035;-92
2022/02/04 22:27:35;;;;;;;14.18;4.95;;;4.10;99.90;;;;;;4963442;28;20038;-93
2022/02/04 22:30:09;;;;;;;12.02;3.70;;;4.20;99.90;;;;;;4985649;28;20035;-95
2022/02/04 22:58:48;;;;;;;14.57;2.75;;;3.80;99.90;;;;;;4920993;28;20030;-86
2022/02/04 23:01:52;;;;;;;10.02;2.50;;;3.90;99.90;;;;;;4931663;28;20047;-95
2022/02/04 23:04:38;;;;;;;10.80;2.08;;;4.00;99.90;;;;;;4949687;29;20039;-96
2022/02/04 23:07:27;;;;;;;13.23;2.65;;;4.10;99.90;;;;;;4924311;28;20038;-92
2022/02/04 23:10:20;;;;;;;10.15;2.50;;;4.10;99.90;;;;;;4927784;28;20043;-93
2022/02/04 23:13:17;;;;;;;15.52;2.90;;;4.20;99.90;;;;;;4948772;29;20118;-94
2022/02/04 23:20:47;;;;;;;11.20;2.08;;;4.20;99.90;;;;;;4956662;28;20027;-93
2022/02/04 23:23:17;;;;;;;12.80;2.28;;;4.20;99.90;;;;;;4907937;28;20438;-93
2022/02/04 23:26:43;;;;;;;11.55;2.58;;;4.10;99.90;;;;;;4917416;28;20050;-91
2022/02/04 23:29:43;;;;;;;9.65;1.40;;;4.10;99.90;;;;;;4930622;28;20468;-89
2022/02/04 23:50:39;;;;;;;6.88;1.20;;;3.90;99.90;;;;;;4968761;28;20057;-95
2022/02/04 23:53:06;;;;;;;9.43;1.42;;;3.90;99.90;;;;;;4957809;28;20030;-96
2022/02/04 23:55:39;;;;;;;7.65;1.70;;;3.90;99.90;;;;;;4940602;28;20041;-96
2022/02/04 23:58:16;;;;;;;4.83;1.03;;;4.00;99.90;;;;;;4963192;28;20030;-95
